createdAt,value
2017-08-29T00:00:51.080Z,21.75
2017-08-29T00:01:51.112Z,21.77
2017-08-29T00:03:44.585Z,21.69
2017-08-29T00:04:44.617Z,21.64
2017-08-29T00:06:39.104Z,21.53
2017-08-29T00:07:39.120Z,21.53
2017-08-29T00:09:33.601Z,21.50
2017-08-29T00:10:33.617Z,21.53
2017-08-29T00:12:28.110Z,21.53
2017-08-29T00:13:28.129Z,21.50
2017-08-29T00:15:22.617Z,21.53
2017-08-29T00:16:22.641Z,21.42
2017-08-29T00:18:17.090Z,21.32
2017-08-29T00:19:25.753Z,21.27
2017-08-29T00:21:11.609Z,21.28
2017-08-29T00:22:11.641Z,21.27
2017-08-29T00:24:08.740Z,21.28
2017-08-29T00:25:08.786Z,21.31
2017-08-29T00:27:03.242Z,21.29
2017-08-29T00:28:03.250Z,21.24
2017-08-29T00:29:57.706Z,21.24
2017-08-29T00:30:57.762Z,21.24
2017-08-29T00:32:52.250Z,21.17
2017-08-29T00:33:52.242Z,21.21
2017-08-29T00:35:46.707Z,21.25
2017-08-29T00:36:46.886Z,21.16
2017-08-29T00:38:41.210Z,21.09
2017-08-29T00:39:41.234Z,21.13
2017-08-29T00:41:35.871Z,21.14
2017-08-29T00:42:35.754Z,21.12
2017-08-29T00:44:29.258Z,21.14
2017-08-29T00:45:29.235Z,21.16
2017-08-29T00:47:23.715Z,21.14
2017-08-29T00:48:23.746Z,21.17
2017-08-29T00:50:18.227Z,21.16
2017-08-29T00:51:18.235Z,21.09
2017-08-29T00:53:12.747Z,21.07
2017-08-29T00:54:12.755Z,21.04
2017-08-29T00:56:07.203Z,21.10
2017-08-29T00:57:07.235Z,20.99
2017-08-29T00:59:01.723Z,20.99
2017-08-29T01:00:01.741Z,20.98
2017-08-29T01:01:56.204Z,21.03
2017-08-29T01:02:56.251Z,21.04
2017-08-29T01:04:50.723Z,20.97
2017-08-29T01:05:50.747Z,21.06
2017-08-29T01:07:45.202Z,20.95
2017-08-29T01:08:45.259Z,21.01
2017-08-29T01:10:38.739Z,20.88
2017-08-29T01:11:38.771Z,20.97
2017-08-29T01:13:33.377Z,20.98
2017-08-29T01:14:33.271Z,21.07
2017-08-29T01:16:26.756Z,21.01
2017-08-29T01:17:26.788Z,20.94
2017-08-29T01:19:21.268Z,20.92
2017-08-29T01:20:21.284Z,21.01
2017-08-29T01:22:15.740Z,20.79
2017-08-29T01:23:15.780Z,20.80
2017-08-29T01:25:10.252Z,20.77
2017-08-29T01:26:10.268Z,20.80
2017-08-29T01:28:04.781Z,20.79
2017-08-29T01:29:04.781Z,20.76
2017-08-29T01:30:59.485Z,20.80
2017-08-29T01:31:59.533Z,20.77
2017-08-29T01:33:53.997Z,20.77
2017-08-29T01:34:54.014Z,20.76
2017-08-29T01:36:48.605Z,20.72
2017-08-29T01:37:48.525Z,20.76
2017-08-29T01:39:42.973Z,20.73
2017-08-29T01:40:43.022Z,20.76
2017-08-29T01:42:37.686Z,20.73
2017-08-29T01:43:37.702Z,20.69
2017-08-29T01:45:32.166Z,20.72
2017-08-29T01:46:32.230Z,20.72
2017-08-29T01:48:26.902Z,20.73
2017-08-29T01:49:26.702Z,20.64
2017-08-29T01:51:21.150Z,20.72
2017-08-29T01:52:21.214Z,20.70
2017-08-29T01:54:15.678Z,20.72
2017-08-29T01:55:15.702Z,20.70
2017-08-29T01:57:10.151Z,20.73
2017-08-29T01:58:18.886Z,20.74
2017-08-29T02:00:03.702Z,20.66
2017-08-29T02:01:03.703Z,20.62
2017-08-29T02:02:57.160Z,20.69
2017-08-29T02:03:57.214Z,20.57
2017-08-29T02:05:51.695Z,20.64
2017-08-29T02:06:51.703Z,20.61
2017-08-29T02:08:46.158Z,20.59
2017-08-29T02:09:46.223Z,20.57
2017-08-29T02:11:39.703Z,20.66
2017-08-29T02:12:39.703Z,20.58
2017-08-29T02:14:34.167Z,20.57
2017-08-29T02:15:34.199Z,20.52
2017-08-29T02:17:28.687Z,20.48
2017-08-29T02:18:28.703Z,20.48
2017-08-29T02:20:23.208Z,20.47
2017-08-29T02:21:23.200Z,20.54
2017-08-29T02:23:16.687Z,20.41
2017-08-29T02:24:16.719Z,20.41
2017-08-29T02:26:11.215Z,20.42
2017-08-29T02:27:11.232Z,20.41
2017-08-29T02:29:05.760Z,20.38
2017-08-29T02:30:05.753Z,20.41
2017-08-29T02:32:00.184Z,20.42
2017-08-29T02:33:00.208Z,20.33
2017-08-29T02:34:54.723Z,20.24
2017-08-29T02:35:54.713Z,20.31
2017-08-29T02:37:49.169Z,20.32
2017-08-29T02:38:49.216Z,20.29
2017-08-29T02:40:43.704Z,20.31
2017-08-29T02:41:43.712Z,20.24
2017-08-29T02:43:38.184Z,20.18
2017-08-29T02:44:38.304Z,20.14
2017-08-29T02:46:32.696Z,20.13
2017-08-29T02:47:32.720Z,20.20
2017-08-29T02:49:27.217Z,20.17
2017-08-29T02:50:27.240Z,20.18
2017-08-29T02:52:21.719Z,20.17
2017-08-29T02:53:21.713Z,20.20
2017-08-29T02:55:16.177Z,20.08
2017-08-29T02:56:16.217Z,20.13
2017-08-29T02:58:10.721Z,20.14
2017-08-29T02:59:10.722Z,20.10
2017-08-29T03:01:05.201Z,20.17
2017-08-29T03:02:05.226Z,20.14
2017-08-29T03:03:59.705Z,20.16
2017-08-29T03:04:59.721Z,20.06
2017-08-29T03:06:54.177Z,20.16
2017-08-29T03:07:54.241Z,20.10
2017-08-29T03:09:50.185Z,20.10
2017-08-29T03:10:50.210Z,20.10
2017-08-29T03:12:46.322Z,20.14
2017-08-29T03:13:46.369Z,20.08
2017-08-29T03:15:39.761Z,20.03
2017-08-29T03:16:39.770Z,20.10
2017-08-29T03:18:34.234Z,20.05
2017-08-29T03:19:34.266Z,20.03
2017-08-29T03:21:28.754Z,20.01
2017-08-29T03:22:28.786Z,19.94
2017-08-29T03:24:23.226Z,19.95
2017-08-29T03:25:23.274Z,19.80
2017-08-29T03:27:17.762Z,19.95
2017-08-29T03:28:17.778Z,19.91
2017-08-29T03:30:11.219Z,19.88
2017-08-29T03:31:11.258Z,19.83
2017-08-29T03:33:05.755Z,19.83
2017-08-29T03:34:05.763Z,19.83
2017-08-29T03:36:00.226Z,19.91
2017-08-29T03:37:00.274Z,19.83
2017-08-29T03:38:54.723Z,19.88
2017-08-29T03:39:54.754Z,19.86
2017-08-29T03:41:50.235Z,19.87
2017-08-29T03:42:50.243Z,19.86
2017-08-29T03:44:44.731Z,19.86
2017-08-29T03:45:44.763Z,19.92
2017-08-29T03:47:39.228Z,19.86
2017-08-29T03:48:39.238Z,19.83
2017-08-29T03:50:33.691Z,19.87
2017-08-29T03:51:33.747Z,19.80
2017-08-29T03:53:28.235Z,19.74
2017-08-29T03:54:28.227Z,19.73
2017-08-29T03:56:21.684Z,19.73
2017-08-29T03:57:21.748Z,19.76
2017-08-29T03:59:16.219Z,19.76
2017-08-29T04:00:16.228Z,19.78
2017-08-29T04:02:10.691Z,19.65
2017-08-29T04:03:10.732Z,19.63
2017-08-29T04:05:05.196Z,19.58
2017-08-29T04:06:05.220Z,19.55
2017-08-29T04:07:59.748Z,19.55
2017-08-29T04:08:59.733Z,19.55
2017-08-29T04:10:54.172Z,19.51
2017-08-29T04:11:54.222Z,19.51
2017-08-29T04:13:50.332Z,19.33
2017-08-29T04:14:50.333Z,19.41
2017-08-29T04:16:44.740Z,19.40
2017-08-29T04:17:44.772Z,19.37
2017-08-29T04:19:39.252Z,19.37
2017-08-29T04:20:39.268Z,19.33
2017-08-29T04:22:32.748Z,19.36
2017-08-29T04:23:32.772Z,19.36
2017-08-29T04:25:27.220Z,19.43
2017-08-29T04:26:27.252Z,19.36
2017-08-29T04:28:21.733Z,19.36
2017-08-29T04:29:21.749Z,19.37
2017-08-29T04:31:18.877Z,19.36
2017-08-29T04:32:18.845Z,19.29
2017-08-29T04:34:12.285Z,19.40
2017-08-29T04:35:12.301Z,19.32
2017-08-29T04:37:06.781Z,19.40
2017-08-29T04:38:06.805Z,19.41
2017-08-29T04:40:01.254Z,19.41
2017-08-29T04:41:01.297Z,19.37
2017-08-29T04:42:55.789Z,19.40
2017-08-29T04:43:55.806Z,19.40
2017-08-29T04:45:50.304Z,19.32
2017-08-29T04:46:50.317Z,19.32
2017-08-29T04:48:44.789Z,19.43
2017-08-29T04:49:44.877Z,19.40
2017-08-29T04:51:39.270Z,19.37
2017-08-29T04:52:39.285Z,19.39
2017-08-29T04:54:32.773Z,19.40
2017-08-29T04:55:32.797Z,19.39
2017-08-29T04:57:27.279Z,19.32
2017-08-29T04:58:27.302Z,19.37
2017-08-29T05:00:21.766Z,19.37
2017-08-29T05:01:21.806Z,19.32
2017-08-29T05:03:16.294Z,19.44
2017-08-29T05:04:16.318Z,19.39
2017-08-29T05:06:10.769Z,19.40
2017-08-29T05:07:10.809Z,19.32
2017-08-29T05:09:05.271Z,19.41
2017-08-29T05:10:05.294Z,19.40
2017-08-29T05:11:59.750Z,19.31
2017-08-29T05:12:59.798Z,19.33
2017-08-29T05:14:54.271Z,19.37
2017-08-29T05:15:54.279Z,19.39
2017-08-29T05:17:48.775Z,19.40
2017-08-29T05:18:48.783Z,19.40
2017-08-29T05:20:43.231Z,19.37
2017-08-29T05:21:43.270Z,19.32
2017-08-29T05:23:37.751Z,19.31
2017-08-29T05:24:37.775Z,19.36
2017-08-29T05:26:31.223Z,19.36
2017-08-29T05:27:31.256Z,19.36
2017-08-29T05:29:25.727Z,19.31
2017-08-29T05:30:25.743Z,19.41
2017-08-29T05:32:19.215Z,19.40
2017-08-29T05:33:19.247Z,19.43
2017-08-29T05:35:13.727Z,19.32
2017-08-29T05:36:13.751Z,19.41
2017-08-29T05:38:08.208Z,19.33
2017-08-29T05:39:08.248Z,19.54
2017-08-29T05:41:02.720Z,19.48
2017-08-29T05:42:02.743Z,19.51
2017-08-29T05:43:57.395Z,19.54
2017-08-29T05:44:57.440Z,19.47
2017-08-29T05:46:51.920Z,19.43
2017-08-29T05:47:51.944Z,19.36
2017-08-29T05:49:45.392Z,19.44
2017-08-29T05:50:45.424Z,19.48
2017-08-29T05:52:39.912Z,19.51
2017-08-29T05:53:39.949Z,19.54
2017-08-29T05:55:34.453Z,19.58
2017-08-29T05:56:34.511Z,19.58
2017-08-29T05:58:30.567Z,19.68
2017-08-29T05:59:30.495Z,19.66
2017-08-29T06:01:24.023Z,19.63
2017-08-29T06:02:24.071Z,19.68
2017-08-29T06:04:18.528Z,19.69
2017-08-29T06:05:18.559Z,19.68
2017-08-29T06:07:13.016Z,19.78
2017-08-29T06:08:13.056Z,19.83
2017-08-29T06:10:06.543Z,19.83
2017-08-29T06:11:06.565Z,19.94
2017-08-29T06:13:01.008Z,19.91
2017-08-29T06:14:01.048Z,19.92
2017-08-29T06:15:55.553Z,19.95
2017-08-29T06:16:55.560Z,19.95
2017-08-29T06:18:50.024Z,20.05
2017-08-29T06:19:50.056Z,20.02
2017-08-29T06:21:44.537Z,20.05
2017-08-29T06:22:44.561Z,20.11
2017-08-29T06:24:39.023Z,20.14
2017-08-29T06:25:39.065Z,20.17
2017-08-29T06:27:32.569Z,20.24
2017-08-29T06:28:32.585Z,20.14
2017-08-29T06:30:30.665Z,20.16
2017-08-29T06:31:27.049Z,20.26
2017-08-29T06:33:21.089Z,20.31
2017-08-29T06:34:20.600Z,20.36
2017-08-29T06:36:15.108Z,20.41
2017-08-29T06:37:15.129Z,20.35
2017-08-29T06:39:09.625Z,20.50
2017-08-29T06:40:09.665Z,20.51
2017-08-29T06:42:04.137Z,20.61
2017-08-29T06:43:04.265Z,20.58
2017-08-29T06:44:58.659Z,20.66
2017-08-29T06:45:58.673Z,20.69
2017-08-29T06:47:53.145Z,20.77
2017-08-29T06:48:53.177Z,20.79
2017-08-29T06:50:46.669Z,20.87
2017-08-29T06:51:46.681Z,20.88
2017-08-29T06:53:41.179Z,20.92
2017-08-29T06:54:41.210Z,20.88
2017-08-29T06:56:35.826Z,21.03
2017-08-29T06:57:35.714Z,20.98
2017-08-29T06:59:30.162Z,21.03
2017-08-29T07:00:30.218Z,20.99
2017-08-29T07:02:26.290Z,21.17
2017-08-29T07:03:26.322Z,21.22
2017-08-29T07:05:19.730Z,21.24
2017-08-29T07:06:19.762Z,21.25
2017-08-29T07:08:14.250Z,21.37
2017-08-29T07:09:14.306Z,21.46
2017-08-29T07:11:08.730Z,21.53
2017-08-29T07:12:08.778Z,21.53
2017-08-29T07:14:03.266Z,21.59
2017-08-29T07:15:03.290Z,21.65
2017-08-29T07:16:59.362Z,21.79
2017-08-29T07:17:59.402Z,21.74
2017-08-29T07:19:53.835Z,21.88
2017-08-29T07:20:53.882Z,21.99
2017-08-29T07:22:47.548Z,22.00
2017-08-29T07:23:47.559Z,22.07
2017-08-29T07:25:42.191Z,22.07
2017-08-29T07:26:42.224Z,22.18
2017-08-29T07:28:41.988Z,22.27
2017-08-29T07:29:36.635Z,22.40
2017-08-29T07:31:31.051Z,22.37
2017-08-29T07:32:31.611Z,22.47
2017-08-29T07:34:25.596Z,22.55
2017-08-29T07:35:25.628Z,22.58
2017-08-29T07:37:21.259Z,22.67
2017-08-29T07:38:22.021Z,22.70
2017-08-29T07:40:15.308Z,22.80
2017-08-29T07:41:15.863Z,22.83
2017-08-29T07:43:08.371Z,22.88
2017-08-29T07:44:09.339Z,23.04
2017-08-29T07:46:01.827Z,23.09
2017-08-29T07:47:02.323Z,23.04
2017-08-29T07:49:44.588Z,23.17
2017-08-29T07:50:44.652Z,23.36
2017-08-29T07:52:38.307Z,23.40
2017-08-29T07:53:38.335Z,23.51
2017-08-29T07:55:32.067Z,23.63
2017-08-29T07:56:42.107Z,23.63
2017-08-29T07:58:38.643Z,23.88
2017-08-29T08:00:56.339Z,23.94
2017-08-29T08:01:57.094Z,23.90
2017-08-29T08:03:50.835Z,24.03
2017-08-29T08:04:50.795Z,24.13
2017-08-29T08:06:45.364Z,24.13
2017-08-29T08:07:45.371Z,24.22
2017-08-29T08:09:39.763Z,24.32
2017-08-29T08:10:39.824Z,24.37
2017-08-29T08:12:34.320Z,24.52
2017-08-29T08:13:34.345Z,24.77
2017-08-29T08:15:27.794Z,25.02
2017-08-29T08:16:27.833Z,25.15
2017-08-29T08:18:22.137Z,25.21
2017-08-29T08:19:22.129Z,25.33
2017-08-29T08:21:16.641Z,25.42
2017-08-29T08:22:16.705Z,25.42
2017-08-29T08:24:11.701Z,25.47
2017-08-29T08:25:11.594Z,25.65
2017-08-29T08:27:06.041Z,25.65
2017-08-29T08:28:06.089Z,25.70
2017-08-29T08:30:00.593Z,25.83
2017-08-29T08:31:00.616Z,25.83
2017-08-29T08:32:55.104Z,25.97
2017-08-29T08:33:55.624Z,26.20
2017-08-29T08:35:49.611Z,26.18
2017-08-29T08:36:49.665Z,26.21
2017-08-29T08:38:44.505Z,26.45
2017-08-29T08:39:44.209Z,26.36
2017-08-29T08:41:38.656Z,26.51
2017-08-29T08:42:38.659Z,26.69
2017-08-29T08:44:33.251Z,26.91
2017-08-29T08:45:33.219Z,26.89
2017-08-29T08:47:29.299Z,27.04
2017-08-29T08:48:29.347Z,27.10
2017-08-29T08:50:22.820Z,27.44
2017-08-29T08:51:22.845Z,27.47
2017-08-29T08:53:18.939Z,27.54
2017-08-29T08:54:18.971Z,27.50
2017-08-29T08:56:13.410Z,27.63
2017-08-29T08:57:13.442Z,27.82
2017-08-29T08:59:08.499Z,28.03
2017-08-29T09:00:07.987Z,28.11
2017-08-29T09:02:02.451Z,28.19
2017-08-29T09:03:02.475Z,28.27
2017-08-29T09:04:56.971Z,28.48
2017-08-29T09:05:56.996Z,28.52
2017-08-29T09:07:51.483Z,28.76
2017-08-29T09:08:51.507Z,28.86
2017-08-29T09:10:47.491Z,28.98
2017-08-29T09:11:47.051Z,29.04
2017-08-29T09:13:40.539Z,29.12
2017-08-29T09:14:40.548Z,29.33
2017-08-29T09:16:35.003Z,29.51
2017-08-29T09:17:35.066Z,29.64
2017-08-29T09:19:29.555Z,29.70
2017-08-29T09:20:29.571Z,29.87
2017-08-29T09:22:24.540Z,30.05
2017-08-29T09:23:24.112Z,30.15
2017-08-29T09:25:18.687Z,30.29
2017-08-29T09:26:18.708Z,30.38
2017-08-29T09:28:13.187Z,30.55
2017-08-29T09:29:13.227Z,30.72
2017-08-29T09:31:07.691Z,30.95
2017-08-29T09:32:07.731Z,31.09
2017-08-29T09:34:02.235Z,31.32
2017-08-29T09:35:02.251Z,31.28
2017-08-29T09:36:56.723Z,31.62
2017-08-29T09:37:56.771Z,31.66
2017-08-29T09:39:51.267Z,31.86
2017-08-29T09:40:51.299Z,31.93
2017-08-29T09:42:45.773Z,32.10
2017-08-29T09:43:45.812Z,32.37
2017-08-29T09:45:40.307Z,32.55
2017-08-29T09:46:40.331Z,32.52
2017-08-29T09:48:34.835Z,32.72
2017-08-29T09:49:34.875Z,32.97
2017-08-29T09:51:29.332Z,33.19
2017-08-29T09:52:29.387Z,33.35
2017-08-29T09:54:23.876Z,33.51
2017-08-29T09:55:23.892Z,33.47
2017-08-29T09:57:18.412Z,33.61
2017-08-29T09:58:18.437Z,33.68
2017-08-29T10:00:13.069Z,33.60
2017-08-29T10:01:12.996Z,33.84
2017-08-29T10:03:07.485Z,34.30
2017-08-29T10:04:07.564Z,34.58
2017-08-29T10:06:01.964Z,34.87
2017-08-29T10:07:02.814Z,35.15
2017-08-29T10:09:03.148Z,35.55
2017-08-29T10:10:04.420Z,35.45
2017-08-29T10:11:56.629Z,35.78
2017-08-29T10:12:56.661Z,35.75
2017-08-29T10:14:51.197Z,35.90
2017-08-29T10:15:51.229Z,35.96
2017-08-29T10:17:44.493Z,36.20
2017-08-29T10:18:44.517Z,36.44
2017-08-29T10:20:39.004Z,36.84
2017-08-29T10:21:39.029Z,36.98
2017-08-29T10:23:32.533Z,37.05
2017-08-29T10:24:32.573Z,37.24
2017-08-29T10:26:27.045Z,37.66
2017-08-29T10:27:27.101Z,37.79
2017-08-29T10:29:20.613Z,38.15
2017-08-29T10:30:20.653Z,38.11
2017-08-29T10:32:15.117Z,38.66
2017-08-29T10:33:15.157Z,38.79
2017-08-29T10:35:09.661Z,38.98
2017-08-29T10:36:09.701Z,39.03
2017-08-29T10:38:04.221Z,39.33
2017-08-29T10:39:04.246Z,39.52
2017-08-29T10:40:58.725Z,39.52
2017-08-29T10:41:58.765Z,39.91
2017-08-29T10:43:53.286Z,40.08
2017-08-29T10:44:53.301Z,40.27
2017-08-29T10:46:47.814Z,40.51
2017-08-29T10:47:47.862Z,40.69
2017-08-29T10:49:42.565Z,41.14
2017-08-29T10:50:42.415Z,41.48
2017-08-29T10:52:36.925Z,41.93
2017-08-29T10:53:36.950Z,42.30
2017-08-29T10:55:31.406Z,42.64
2017-08-29T10:56:31.446Z,42.70
2017-08-29T10:58:26.055Z,43.08
2017-08-29T10:59:25.998Z,43.31
2017-08-29T11:01:20.505Z,43.78
2017-08-29T11:02:20.526Z,43.84
2017-08-29T11:04:15.043Z,43.97
2017-08-29T11:05:15.150Z,44.39
2017-08-29T11:07:09.582Z,44.83
2017-08-29T11:08:09.598Z,45.01
2017-08-29T11:10:05.655Z,45.19
2017-08-29T11:11:05.640Z,45.42
2017-08-29T11:13:00.158Z,45.79
2017-08-29T11:14:00.223Z,45.84
2017-08-29T11:15:54.703Z,45.81
2017-08-29T11:16:54.743Z,46.23
2017-08-29T11:18:49.279Z,46.40
2017-08-29T11:19:49.333Z,46.99
2017-08-29T11:21:42.805Z,46.83
2017-08-29T11:22:42.832Z,47.12
2017-08-29T11:24:37.448Z,47.95
2017-08-29T11:25:37.383Z,48.25
2017-08-29T11:27:31.895Z,48.28
2017-08-29T11:28:31.911Z,48.79
2017-08-29T11:30:26.399Z,49.03
2017-08-29T11:31:26.463Z,49.36
2017-08-29T11:33:22.480Z,49.72
2017-08-29T11:34:22.473Z,49.79
2017-08-29T11:36:16.960Z,50.22
2017-08-29T11:37:17.015Z,50.00
2017-08-29T11:39:11.544Z,50.36
2017-08-29T11:40:11.560Z,50.47
2017-08-29T11:42:06.048Z,50.44
2017-08-29T11:43:06.096Z,51.14
2017-08-29T11:45:00.632Z,50.83
2017-08-29T11:46:00.632Z,50.88
2017-08-29T11:47:55.120Z,51.23
2017-08-29T11:48:55.176Z,51.11
2017-08-29T11:50:49.704Z,51.68
2017-08-29T11:51:49.728Z,52.34
2017-08-29T11:53:44.232Z,53.74
2017-08-29T11:54:44.264Z,54.19
2017-08-29T11:56:38.792Z,54.57
2017-08-29T11:57:38.793Z,54.67
2017-08-29T11:59:33.281Z,54.61
2017-08-29T12:00:33.337Z,54.92
2017-08-29T12:02:26.857Z,55.65
2017-08-29T12:03:26.873Z,55.70
2017-08-29T12:05:21.354Z,55.72
2017-08-29T12:06:21.409Z,56.02
2017-08-29T12:08:15.920Z,54.96
2017-08-29T12:09:15.953Z,55.25
2017-08-29T12:11:10.481Z,55.56
2017-08-29T12:12:10.505Z,55.49
2017-08-29T12:14:04.970Z,56.11
2017-08-29T12:15:05.026Z,56.36
2017-08-29T12:16:59.538Z,56.35
2017-08-29T12:17:59.570Z,56.52
2017-08-29T12:19:54.050Z,55.59
2017-08-29T12:20:54.106Z,55.09
2017-08-29T12:22:47.658Z,55.49
2017-08-29T12:23:47.642Z,55.88
2017-08-29T12:25:42.129Z,55.50
2017-08-29T12:26:42.192Z,55.61
2017-08-29T12:28:36.690Z,55.70
2017-08-29T12:29:36.727Z,56.02
2017-08-29T12:31:31.226Z,56.55
2017-08-29T12:32:31.282Z,57.01
2017-08-29T12:34:25.882Z,57.78
2017-08-29T12:35:25.802Z,58.04
2017-08-29T12:37:20.299Z,58.17
2017-08-29T12:38:20.354Z,58.30
2017-08-29T12:40:14.835Z,58.34
2017-08-29T12:41:14.882Z,58.24
2017-08-29T12:43:09.387Z,59.23
2017-08-29T12:44:09.427Z,58.78
2017-08-29T12:46:03.917Z,59.44
2017-08-29T12:47:03.980Z,58.24
2017-08-29T12:48:58.483Z,58.25
2017-08-29T12:49:58.523Z,57.89
2017-08-29T12:51:52.005Z,58.11
2017-08-29T12:52:52.052Z,58.40
2017-08-29T12:54:46.571Z,58.66
2017-08-29T12:55:46.590Z,59.18
2017-08-29T12:57:41.067Z,59.63
2017-08-29T12:58:41.123Z,59.87
2017-08-29T13:00:34.623Z,58.97
2017-08-29T13:01:34.668Z,58.09
2017-08-29T13:03:29.172Z,58.67
2017-08-29T13:04:29.212Z,58.49
2017-08-29T13:06:22.691Z,57.63
2017-08-29T13:07:22.739Z,57.90
2017-08-29T13:09:16.300Z,58.84
2017-08-29T13:10:16.332Z,58.52
2017-08-29T13:12:12.372Z,57.51
2017-08-29T13:13:12.380Z,56.83
2017-08-29T13:15:05.900Z,57.67
2017-08-29T13:16:05.934Z,57.68
2017-08-29T13:18:00.444Z,57.57
2017-08-29T13:19:00.476Z,57.87
2017-08-29T13:20:55.012Z,58.02
2017-08-29T13:21:55.028Z,57.08
2017-08-29T13:23:49.548Z,56.89
2017-08-29T13:24:49.581Z,56.94
2017-08-29T13:26:45.572Z,56.51
2017-08-29T13:27:45.630Z,56.42
2017-08-29T13:29:40.173Z,56.42
2017-08-29T13:30:40.164Z,56.04
2017-08-29T13:32:34.677Z,56.73
2017-08-29T13:33:34.717Z,55.87
2017-08-29T13:35:29.229Z,56.08
2017-08-29T13:36:29.261Z,55.99
2017-08-29T13:38:23.803Z,55.21
2017-08-29T13:39:23.837Z,53.87
2017-08-29T13:41:18.285Z,53.07
2017-08-29T13:42:18.349Z,52.76
2017-08-29T13:44:12.853Z,51.81
2017-08-29T13:45:12.883Z,51.45
2017-08-29T13:47:07.362Z,51.09
2017-08-29T13:48:07.410Z,49.94
2017-08-29T13:50:01.927Z,48.70
2017-08-29T13:51:01.954Z,48.29
2017-08-29T13:52:56.427Z,47.63
2017-08-29T13:53:56.491Z,47.57
2017-08-29T13:55:50.979Z,45.61
2017-08-29T13:56:51.027Z,45.29
2017-08-29T13:58:45.563Z,44.79
2017-08-29T13:59:45.611Z,44.68
2017-08-29T14:01:40.076Z,44.98
2017-08-29T14:02:40.123Z,44.60
2017-08-29T14:04:34.627Z,44.41
2017-08-29T14:05:34.651Z,44.70
2017-08-29T14:07:29.139Z,45.01
2017-08-29T14:08:29.187Z,45.20
2017-08-29T14:10:22.723Z,45.81
2017-08-29T14:11:22.750Z,46.18
2017-08-29T14:13:17.203Z,46.66
2017-08-29T14:14:17.253Z,46.83
2017-08-29T14:16:10.772Z,47.21
2017-08-29T14:17:10.787Z,47.00
2017-08-29T14:19:06.780Z,47.43
2017-08-29T14:20:06.812Z,47.53
2017-08-29T14:22:00.332Z,47.54
2017-08-29T14:23:00.348Z,47.10
2017-08-29T14:25:06.381Z,46.30
2017-08-29T14:26:06.396Z,46.03
2017-08-29T14:28:00.909Z,45.62
2017-08-29T14:29:00.917Z,45.35
2017-08-29T14:30:55.429Z,44.56
2017-08-29T14:31:55.452Z,44.25
2017-08-29T14:33:48.932Z,43.87
2017-08-29T14:34:49.157Z,43.54
2017-08-29T14:36:43.485Z,43.23
2017-08-29T14:37:43.508Z,42.81
2017-08-29T14:39:37.975Z,42.31
2017-08-29T14:40:38.991Z,41.98
2017-08-29T14:42:32.543Z,41.73
2017-08-29T14:43:32.543Z,41.45
2017-08-29T14:45:26.015Z,40.94
2017-08-29T14:46:26.063Z,40.84
2017-08-29T14:48:20.559Z,39.97
2017-08-29T14:49:20.592Z,39.89
2017-08-29T14:51:15.111Z,39.84
2017-08-29T14:52:15.135Z,39.77
2017-08-29T14:54:09.616Z,39.51
2017-08-29T14:55:09.680Z,39.41
2017-08-29T14:57:04.280Z,39.28
2017-08-29T14:58:04.191Z,39.25
2017-08-29T14:59:57.672Z,39.25
2017-08-29T15:00:57.736Z,38.95
2017-08-29T15:02:52.216Z,39.04
2017-08-29T15:03:52.225Z,38.88
2017-08-29T15:05:46.724Z,38.72
2017-08-29T15:06:46.744Z,38.56
2017-08-29T15:08:41.216Z,38.54
2017-08-29T15:09:41.263Z,38.49
2017-08-29T15:11:35.769Z,38.56
2017-08-29T15:12:35.808Z,38.76
2017-08-29T15:14:29.640Z,38.81
2017-08-29T15:15:29.328Z,38.60
2017-08-29T15:17:23.881Z,38.75
2017-08-29T15:18:23.841Z,38.74
2017-08-29T15:20:18.320Z,38.72
2017-08-29T15:21:18.450Z,38.86
2017-08-29T15:23:11.873Z,38.83
2017-08-29T15:24:11.889Z,38.91
2017-08-29T15:26:06.361Z,38.87
2017-08-29T15:27:06.409Z,38.75
2017-08-29T15:29:00.897Z,38.93
2017-08-29T15:30:00.922Z,38.65
2017-08-29T15:31:56.945Z,38.79
2017-08-29T15:32:56.945Z,38.81
2017-08-29T15:34:51.466Z,38.91
2017-08-29T15:35:51.474Z,38.71
2017-08-29T15:37:47.001Z,38.32
2017-08-29T15:38:46.113Z,38.06
2017-08-29T15:40:40.626Z,37.93
2017-08-29T15:41:40.649Z,37.93
2017-08-29T15:43:35.136Z,37.69
2017-08-29T15:44:35.178Z,37.66
2017-08-29T15:46:28.658Z,37.31
2017-08-29T15:47:28.698Z,37.29
2017-08-29T15:49:23.210Z,37.13
2017-08-29T15:50:24.138Z,37.07
2017-08-29T15:52:17.713Z,37.07
2017-08-29T15:53:17.762Z,37.02
2017-08-29T15:55:12.258Z,36.83
2017-08-29T15:56:12.282Z,36.71
2017-08-29T15:58:06.754Z,36.56
2017-08-29T15:59:06.795Z,36.46
2017-08-29T16:01:00.346Z,36.46
2017-08-29T16:02:00.346Z,36.25
2017-08-29T16:03:54.314Z,35.80
2017-08-29T16:04:54.034Z,35.94
2017-08-29T16:06:48.706Z,35.72
2017-08-29T16:07:48.442Z,35.87
2017-08-29T16:09:41.682Z,35.93
2017-08-29T16:10:41.459Z,35.92
2017-08-29T16:12:35.971Z,35.90
2017-08-29T16:13:36.003Z,35.87
2017-08-29T16:15:30.555Z,35.77
2017-08-29T16:16:30.507Z,35.68
2017-08-29T16:18:24.043Z,35.38
2017-08-29T16:19:24.075Z,35.44
2017-08-29T16:21:18.539Z,35.40
2017-08-29T16:22:18.667Z,35.50
2017-08-29T16:24:13.052Z,35.56
2017-08-29T16:25:13.099Z,35.38
2017-08-29T16:27:06.588Z,35.37
2017-08-29T16:28:06.620Z,35.36
2017-08-29T16:30:01.100Z,35.22
2017-08-29T16:31:01.139Z,35.07
2017-08-29T16:32:54.635Z,35.03
2017-08-29T16:33:54.660Z,34.78
2017-08-29T16:35:49.159Z,34.70
2017-08-29T16:36:49.180Z,34.77
2017-08-29T16:38:42.660Z,34.77
2017-08-29T16:39:42.700Z,34.84
2017-08-29T16:41:37.188Z,34.87
2017-08-29T16:42:37.212Z,34.70
2017-08-29T16:44:30.691Z,34.65
2017-08-29T16:45:30.724Z,34.59
2017-08-29T16:47:25.220Z,34.54
2017-08-29T16:48:25.236Z,34.52
2017-08-29T16:50:19.716Z,34.65
2017-08-29T16:51:19.764Z,34.61
2017-08-29T16:53:14.253Z,34.50
2017-08-29T16:54:14.276Z,34.39
2017-08-29T16:56:08.765Z,34.34
2017-08-29T16:57:08.813Z,34.35
2017-08-29T16:59:03.309Z,34.31
2017-08-29T17:00:03.333Z,34.15
2017-08-29T17:01:57.807Z,34.13
2017-08-29T17:02:57.861Z,34.13
2017-08-29T17:04:52.349Z,34.10
2017-08-29T17:05:52.365Z,33.98
2017-08-29T17:07:46.877Z,34.02
2017-08-29T17:08:46.901Z,34.17
2017-08-29T17:10:41.357Z,33.93
2017-08-29T17:11:41.405Z,34.00
2017-08-29T17:13:35.917Z,34.02
2017-08-29T17:14:35.925Z,34.03
2017-08-29T17:16:30.397Z,33.94
2017-08-29T17:17:30.549Z,33.90
2017-08-29T17:19:24.997Z,33.76
2017-08-29T17:20:24.973Z,33.81
2017-08-29T17:22:19.501Z,33.79
2017-08-29T17:23:19.517Z,33.86
2017-08-29T17:25:14.021Z,33.76
2017-08-29T17:26:14.030Z,33.86
2017-08-29T17:28:07.865Z,33.65
2017-08-29T17:29:07.689Z,33.60
2017-08-29T17:31:02.185Z,33.41
2017-08-29T17:32:02.218Z,33.35
2017-08-29T17:33:58.186Z,33.34
2017-08-29T17:34:58.249Z,33.42
2017-08-29T17:36:52.842Z,33.39
2017-08-29T17:37:52.850Z,33.31
2017-08-29T17:39:47.330Z,33.32
2017-08-29T17:40:47.274Z,33.29
2017-08-29T17:42:40.794Z,33.18
2017-08-29T17:43:40.842Z,33.21
2017-08-29T17:45:35.466Z,33.12
2017-08-29T17:48:18.898Z,33.01
2017-08-29T17:49:18.930Z,33.01
2017-08-29T17:51:13.466Z,32.94
2017-08-29T17:52:13.474Z,32.89
2017-08-29T17:54:07.954Z,32.85
2017-08-29T17:55:07.978Z,32.74
2017-08-29T17:57:02.451Z,32.57
2017-08-29T17:58:02.499Z,32.60
2017-08-29T17:59:57.043Z,32.51
2017-08-29T18:00:57.035Z,32.41
2017-08-29T18:03:00.146Z,32.35
2017-08-29T18:03:51.547Z,32.35
2017-08-29T18:05:46.027Z,32.23
2017-08-29T18:06:46.066Z,32.15
2017-08-29T18:08:40.523Z,32.08
2017-08-29T18:09:40.579Z,32.10
2017-08-29T18:11:35.084Z,31.95
2017-08-29T18:12:35.083Z,32.01
2017-08-29T18:14:29.547Z,31.91
2017-08-29T18:15:29.612Z,31.78
2017-08-29T18:17:24.099Z,31.76
2017-08-29T18:18:24.115Z,31.80
2017-08-29T18:20:18.572Z,31.65
2017-08-29T18:21:18.619Z,31.53
2017-08-29T18:23:13.107Z,31.53
2017-08-29T18:24:13.147Z,31.51
2017-08-29T18:26:07.660Z,31.41
2017-08-29T18:27:07.683Z,31.32
2017-08-29T18:29:02.200Z,31.34
2017-08-29T18:30:02.212Z,31.25
2017-08-29T18:31:56.700Z,31.13
2017-08-29T18:32:56.736Z,31.16
2017-08-29T18:34:51.228Z,31.10
2017-08-29T18:35:51.244Z,31.09
2017-08-29T18:37:45.716Z,30.95
2017-08-29T18:38:45.749Z,30.94
2017-08-29T18:40:40.332Z,30.83
2017-08-29T18:41:40.348Z,30.82
2017-08-29T18:43:34.828Z,30.73
2017-08-29T18:44:34.876Z,30.69
2017-08-29T18:46:29.349Z,30.70